Terminal Aerodrome Forecast
Issued by NWS

Current Version | Previous Version | Graphics & Text | Print | Product List | Glossary On
Versions: 1 2 3 4 5 6 7 8 9 10 11 12 13 14 15 16 17 18 19 20 21
000
FTUS41 KILN 250900 AAB
TAFLUK
TAF AMD
KLUK 250921Z 2509/2606 18005KT P6SM -SHRA SCT050 OVC080
      TEMPO 2509/2511 4SM -TSRA OVC040CB
     FM251200 23013G23KT P6SM SCT035 BKN150
     FM252200 23008KT P6SM SCT040 BKN120=

USA.gov is the U.S. government's official web portal to all federal, state and local government web resources and services.